Time;durP1;ratioP1;P1;durP2;ratioP2;P2;SDS_P1;SDS_P2;PMS_P1;PMS_P2;Temp;Humidity;BMP_temperature;BMP_pressure;BME280_temperature;BME280_humidity;BME280_pressure;Samples;Min_cycle;Max_cycle;Signal;HPM_P1;HPM_P2
2023/01/19 00:03:14;;;;;;;1999.90;999.90;;;0.40;99.90;;;;;;6733353;88;20244;-74
2023/01/19 00:13:15;;;;;;;1999.90;999.90;;;0.40;99.90;;;;;;6732893;88;20193;-74
2023/01/19 00:23:16;;;;;;;1999.90;999.90;;;0.60;99.90;;;;;;6732653;88;20276;-76
2023/01/19 00:33:16;;;;;;;1999.90;999.90;;;0.70;99.90;;;;;;6732404;88;20668;-76
2023/01/19 00:43:17;;;;;;;1999.90;999.90;;;0.70;99.90;;;;;;6664381;88;20195;-75
2023/01/19 00:53:17;;;;;;;1999.90;999.90;;;0.70;99.90;;;;;;6661431;89;20569;-74
2023/01/19 01:03:18;;;;;;;1999.90;999.90;;;0.50;99.90;;;;;;6661552;89;20186;-75
2023/01/19 01:13:18;;;;;;;1999.90;999.90;;;0.50;99.90;;;;;;6661643;88;20296;-76
2023/01/19 01:23:21;;;;;;;1999.90;999.90;;;0.40;99.90;;;;;;6645719;89;20225;-75
2023/01/19 01:33:22;;;;;;;1999.90;999.90;;;0.40;99.90;;;;;;6645791;88;20594;-76
2023/01/19 01:43:23;;;;;;;1999.90;999.90;;;0.30;99.90;;;;;;6747559;88;20231;-74
2023/01/19 01:53:23;;;;;;;1999.90;999.90;;;0.20;99.90;;;;;;6745543;88;20279;-75
2023/01/19 02:03:25;;;;;;;1999.90;999.90;;;0.40;99.90;;;;;;6740364;88;20647;-75
2023/01/19 02:13:33;;;;;;;1999.90;999.90;;;0.60;99.90;;;;;;6734575;88;20251;-76
2023/01/19 02:23:38;;;;;;;1999.90;999.90;;;0.70;99.90;;;;;;6735854;88;20192;-76
2023/01/19 02:33:38;;;;;;;1999.90;999.90;;;0.80;99.90;;;;;;6743737;87;20703;-75
2023/01/19 02:43:41;;;;;;;1999.90;999.90;;;1.00;99.90;;;;;;6742235;88;20181;-76
2023/01/19 02:54:12;;;;;;;1999.90;999.90;;;1.10;99.90;;;;;;6739866;88;20288;-76
2023/01/19 03:04:52;;;;;;;1999.90;999.90;;;1.00;99.90;;;;;;6741329;88;20385;-75
2023/01/19 03:15:00;;;;;;;1999.90;999.90;;;1.10;99.90;;;;;;6733617;88;20740;-76
2023/01/19 03:25:02;;;;;;;1999.90;999.90;;;1.10;99.90;;;;;;6742874;88;20184;-76
2023/01/19 03:35:07;;;;;;;1999.90;999.90;;;0.90;99.90;;;;;;6745955;88;20228;-76
2023/01/19 03:45:11;;;;;;;1999.90;999.90;;;0.80;99.90;;;;;;6743433;88;20189;-75
2023/01/19 03:55:12;;;;;;;1999.90;999.90;;;0.90;99.90;;;;;;6743855;88;20303;-76
2023/01/19 04:05:13;;;;;;;1999.90;999.90;;;1.00;99.90;;;;;;6742630;88;20217;-75
2023/01/19 04:15:14;;;;;;;1999.90;999.90;;;1.00;99.90;;;;;;6748264;88;20218;-74
2023/01/19 04:25:15;;;;;;;1999.90;999.90;;;1.10;99.90;;;;;;6746617;88;20315;-76
2023/01/19 04:35:16;;;;;;;1999.90;999.90;;;1.10;99.90;;;;;;6744951;88;20359;-75
2023/01/19 04:45:16;;;;;;;1999.90;999.90;;;1.10;99.90;;;;;;6744665;88;20783;-75
2023/01/19 04:55:17;;;;;;;1999.90;999.90;;;1.30;99.90;;;;;;6739581;88;21100;-75
2023/01/19 05:05:17;;;;;;;1999.90;999.90;;;1.50;99.90;;;;;;6738367;88;20686;-76
2023/01/19 05:15:18;;;;;;;1999.90;999.90;;;1.50;99.90;;;;;;6740249;88;20191;-76
2023/01/19 05:25:18;;;;;;;1999.90;999.90;;;1.50;99.90;;;;;;6742066;88;20618;-75
2023/01/19 05:35:19;;;;;;;1999.90;999.90;;;1.50;99.90;;;;;;6740536;88;20189;-75
2023/01/19 05:45:20;;;;;;;1999.90;999.90;;;1.60;99.90;;;;;;6741726;88;20221;-75
2023/01/19 05:55:20;;;;;;;1999.90;999.90;;;1.60;99.90;;;;;;6740544;88;20193;-76
2023/01/19 06:05:21;;;;;;;1999.90;999.90;;;1.80;99.90;;;;;;6738952;88;20555;-75
2023/01/19 06:15:22;;;;;;;1999.90;999.90;;;1.90;99.90;;;;;;6743375;88;20791;-76
2023/01/19 06:25:22;;;;;;;1999.90;999.90;;;2.00;99.90;;;;;;6740150;88;21127;-77
2023/01/19 06:35:23;;;;;;;1999.90;999.90;;;1.90;99.90;;;;;;6746758;88;20700;-77
2023/01/19 06:45:23;;;;;;;1999.90;999.90;;;1.80;99.90;;;;;;6750281;88;20241;-77
2023/01/19 06:55:24;;;;;;;1999.90;999.90;;;1.50;99.90;;;;;;6751364;88;20242;-76
2023/01/19 07:05:24;;;;;;;1999.90;999.90;;;1.50;99.90;;;;;;6747039;88;20201;-76
2023/01/19 07:15:25;;;;;;;1999.90;999.90;;;1.30;99.90;;;;;;6739164;88;20230;-77
2023/01/19 07:25:26;;;;;;;1999.90;999.90;;;1.10;99.90;;;;;;6742458;88;20188;-76
2023/01/19 07:35:28;;;;;;;1999.90;999.90;;;1.10;99.90;;;;;;6727389;88;20243;-76
2023/01/19 07:45:28;;;;;;;1999.90;999.90;;;1.10;99.90;;;;;;6666373;88;20177;-76
2023/01/19 07:55:29;;;;;;;1999.90;999.90;;;1.10;99.90;;;;;;6657145;88;20194;-76
2023/01/19 08:05:32;;;;;;;1999.90;999.90;;;1.10;99.90;;;;;;6673980;88;20187;-77
2023/01/19 08:15:32;;;;;;;1999.90;999.90;;;1.10;99.90;;;;;;6658555;88;20294;-77
2023/01/19 08:25:34;;;;;;;1999.90;999.90;;;1.10;99.90;;;;;;6665570;88;20341;-76
2023/01/19 08:35:36;;;;;;;1999.90;999.90;;;1.20;99.90;;;;;;6665747;88;20282;-76
2023/01/19 08:45:46;;;;;;;1999.90;999.90;;;1.20;99.90;;;;;;6665483;89;20198;-75
2023/01/19 08:55:47;;;;;;;1999.90;999.90;;;1.40;99.90;;;;;;6665478;89;20209;-77
2023/01/19 09:05:47;;;;;;;1999.90;999.90;;;1.40;99.90;;;;;;6667138;89;20194;-76
2023/01/19 09:15:48;;;;;;;1999.90;999.90;;;1.40;99.90;;;;;;6668513;89;20235;-75
2023/01/19 09:25:56;;;;;;;1999.90;999.90;;;1.60;99.90;;;;;;6675699;89;20200;-75
2023/01/19 09:35:56;;;;;;;1999.90;999.90;;;1.70;99.90;;;;;;6667915;87;20627;-75
2023/01/19 09:46:01;;;;;;;1999.90;999.90;;;1.80;99.90;;;;;;6669069;89;20190;-75
2023/01/19 09:56:02;;;;;;;1999.90;999.90;;;2.00;99.90;;;;;;6654626;89;20200;-74
2023/01/19 10:06:08;;;;;;;1999.90;999.90;;;2.00;99.90;;;;;;6669466;88;20198;-74
2023/01/19 10:16:13;;;;;;;1999.90;999.90;;;2.10;99.90;;;;;;6668805;88;20263;-74
2023/01/19 10:26:38;;;;;;;1999.90;999.90;;;2.30;99.90;;;;;;6699227;88;20266;-75
2023/01/19 10:36:39;;;;;;;1999.90;999.90;;;2.50;99.90;;;;;;6750822;88;20965;-75
2023/01/19 10:46:46;;;;;;;1999.90;999.90;;;2.30;99.90;;;;;;6757667;88;20196;-76
2023/01/19 10:56:53;;;;;;;1999.90;999.90;;;2.40;99.90;;;;;;6741302;88;20194;-76
2023/01/19 11:07:11;;;;;;;;;;;2.60;99.90;;;;;;6740794;88;20248;-75
2023/01/19 11:17:24;;;;;;;1999.90;999.90;;;2.70;99.90;;;;;;6744571;88;20160;-76
2023/01/19 11:27:25;;;;;;;1999.90;999.90;;;2.70;99.90;;;;;;6745599;88;20206;-74
2023/01/19 11:37:30;;;;;;;1999.90;999.90;;;2.90;99.90;;;;;;6738844;88;20197;-75
2023/01/19 11:47:44;;;;;;;1999.90;999.90;;;3.00;99.90;;;;;;6737921;88;20555;-75
2023/01/19 11:57:48;;;;;;;1999.90;999.90;;;3.30;99.90;;;;;;6737221;88;20207;-74
2023/01/19 12:07:50;;;;;;;1999.90;999.90;;;3.50;99.90;;;;;;6737355;88;20215;-76
2023/01/19 12:17:54;;;;;;;1999.90;999.90;;;3.60;99.90;;;;;;6753676;88;20209;-76
2023/01/19 12:27:56;;;;;;;1999.90;999.90;;;4.00;99.90;;;;;;6749177;88;20197;-76
2023/01/19 12:37:56;;;;;;;1999.90;999.90;;;5.30;99.90;;;;;;6737488;88;20211;-76
2023/01/19 12:47:58;;;;;;;1999.90;999.90;;;6.00;99.90;;;;;;6742670;88;20635;-75
2023/01/19 12:58:17;;;;;;;1999.90;999.90;;;6.50;99.90;;;;;;6748674;88;20263;-77
2023/01/19 13:08:23;;;;;;;1999.90;999.90;;;6.00;99.90;;;;;;6744547;88;20629;-76
2023/01/19 13:18:27;;;;;;;1999.90;999.90;;;6.60;99.90;;;;;;6749020;88;20261;-77
2023/01/19 13:28:41;;;;;;;1999.90;999.90;;;6.10;99.90;;;;;;6744819;87;20502;-77
2023/01/19 13:38:42;;;;;;;1999.90;999.90;;;7.60;99.90;;;;;;6746859;87;20220;-78
2023/01/19 13:48:54;;;;;;;1999.90;999.90;;;6.50;99.90;;;;;;6741243;88;20213;-77
2023/01/19 13:59:10;;;;;;;1999.90;999.90;;;5.80;99.90;;;;;;6747664;88;20200;-78
2023/01/19 14:09:17;;;;;;;1999.90;999.90;;;5.50;99.90;;;;;;6746746;88;20295;-78
2023/01/19 14:19:17;;;;;;;;;;;5.00;99.90;;;;;;6742870;88;20192;-75
2023/01/19 14:29:26;;;;;;;1999.90;999.90;;;4.70;99.90;;;;;;6735893;88;20087;-75
2023/01/19 14:39:31;;;;;;;1999.90;999.90;;;4.60;99.90;;;;;;6735567;88;20244;-75
2023/01/19 14:49:31;;;;;;;1999.90;999.90;;;4.60;99.90;;;;;;6743562;88;20668;-75
2023/01/19 14:59:32;;;;;;;1999.90;999.90;;;4.40;99.90;;;;;;6739776;88;20280;-76
2023/01/19 15:09:32;;;;;;;1999.90;999.90;;;4.60;99.90;;;;;;6743071;88;20230;-76
2023/01/19 15:19:33;;;;;;;1999.90;999.90;;;4.60;99.90;;;;;;6750848;88;20690;-75
2023/01/19 15:29:33;;;;;;;1999.90;999.90;;;4.60;99.90;;;;;;6741428;88;20271;-75
2023/01/19 15:39:34;;;;;;;1999.90;999.90;;;4.50;99.90;;;;;;6740276;88;20751;-74
2023/01/19 15:49:34;;;;;;;1999.90;999.90;;;4.30;99.90;;;;;;6739951;88;20419;-75
2023/01/19 15:59:35;;;;;;;1999.90;999.90;;;4.10;99.90;;;;;;6741848;88;20561;-75
2023/01/19 16:09:36;;;;;;;1999.90;999.90;;;3.80;99.90;;;;;;6738183;88;20227;-75
2023/01/19 16:19:36;;;;;;;1999.90;999.90;;;3.80;99.90;;;;;;6741628;88;20181;-75
2023/01/19 16:29:37;;;;;;;1999.90;999.90;;;3.70;99.90;;;;;;6740267;88;20264;-75
2023/01/19 16:39:37;;;;;;;1999.90;999.90;;;3.50;99.90;;;;;;6745584;88;20238;-75
2023/01/19 16:49:38;;;;;;;1999.90;999.90;;;3.50;99.90;;;;;;6757966;88;20314;-76
2023/01/19 16:59:38;;;;;;;1999.90;999.90;;;3.40;99.90;;;;;;6742968;88;20177;-77
2023/01/19 17:09:39;;;;;;;1999.90;999.90;;;3.40;99.90;;;;;;6743491;88;20345;-77
2023/01/19 17:19:39;;;;;;;1999.90;999.90;;;3.30;99.90;;;;;;6742949;88;20200;-77
2023/01/19 17:29:40;;;;;;;1999.90;999.90;;;3.50;99.90;;;;;;6739868;88;20218;-76
2023/01/19 17:39:40;;;;;;;1999.90;999.90;;;3.50;99.90;;;;;;6740250;88;20653;-75
2023/01/19 17:49:41;;;;;;;1999.90;999.90;;;3.40;99.90;;;;;;6743357;88;20701;-76
2023/01/19 17:59:42;;;;;;;1999.90;999.90;;;3.30;99.90;;;;;;6740629;88;20605;-76
2023/01/19 18:09:43;;;;;;;1999.90;999.90;;;3.30;99.90;;;;;;6750858;88;20613;-75
2023/01/19 18:19:43;;;;;;;1999.90;999.90;;;3.10;99.90;;;;;;6744763;88;20172;-75
2023/01/19 18:29:44;;;;;;;1999.90;999.90;;;3.10;99.90;;;;;;6753944;88;20567;-78
2023/01/19 18:39:45;;;;;;;1999.90;999.90;;;3.20;99.90;;;;;;6754267;88;20230;-75
2023/01/19 18:49:45;;;;;;;1999.90;999.90;;;3.00;99.90;;;;;;6743253;88;20201;-76
2023/01/19 18:59:46;;;;;;;1999.90;999.90;;;2.90;99.90;;;;;;6738369;88;20185;-75
2023/01/19 19:09:46;;;;;;;1999.90;999.90;;;2.60;99.90;;;;;;6741656;88;20180;-76
2023/01/19 19:19:47;;;;;;;1999.90;999.90;;;2.30;99.90;;;;;;6737209;88;20751;-76
2023/01/19 19:29:47;;;;;;;1999.90;999.90;;;2.20;99.90;;;;;;6738665;88;20900;-76
2023/01/19 19:39:48;;;;;;;1999.90;999.90;;;2.00;99.90;;;;;;6746548;88;20763;-76
2023/01/19 19:49:48;;;;;;;1999.90;999.90;;;2.00;99.90;;;;;;6740074;88;20208;-75
2023/01/19 19:59:49;;;;;;;1999.90;999.90;;;1.80;99.90;;;;;;6738319;88;20238;-76
2023/01/19 20:09:52;;;;;;;1999.90;999.90;;;1.90;99.90;;;;;;6734032;88;20200;-76
2023/01/19 20:19:52;;;;;;;1999.90;999.90;;;1.70;99.90;;;;;;6735027;88;20261;-76
2023/01/19 20:29:56;;;;;;;1999.90;999.90;;;1.60;99.90;;;;;;6739666;88;20236;-76
2023/01/19 20:39:57;;;;;;;1999.90;999.90;;;1.60;99.90;;;;;;6706015;87;20237;-76
2023/01/19 20:49:58;;;;;;;1999.90;999.90;;;1.50;99.90;;;;;;6657480;88;20198;-75
2023/01/19 20:59:59;;;;;;;1999.90;999.90;;;1.80;99.90;;;;;;6658015;88;20689;-75
2023/01/19 21:20:03;;;;;;;1999.90;999.90;;;1.80;99.90;;;;;;6763203;87;20762;-78
2023/01/19 21:30:04;;;;;;;1999.90;999.90;;;1.60;99.90;;;;;;6747106;88;20197;-79
2023/01/19 21:40:05;;;;;;;1999.90;999.90;;;1.50;99.90;;;;;;6742768;88;20246;-79
2023/01/19 21:50:06;;;;;;;1999.90;999.90;;;1.70;99.90;;;;;;6749391;88;20212;-79
2023/01/19 22:00:09;;;;;;;1999.90;999.90;;;1.70;99.90;;;;;;6763821;87;20165;-80
2023/01/19 22:10:10;;;;;;;1999.90;999.90;;;1.60;99.90;;;;;;6756581;88;20231;-79
2023/01/19 22:20:10;;;;;;;1999.90;999.90;;;1.50;99.90;;;;;;6761717;88;20743;-79
2023/01/19 22:30:11;;;;;;;1999.90;999.90;;;1.40;99.90;;;;;;6750667;88;20282;-78
2023/01/19 22:40:12;;;;;;;1999.90;999.90;;;1.60;99.90;;;;;;6757835;88;20192;-78
2023/01/19 22:50:12;;;;;;;1999.90;999.90;;;1.80;99.90;;;;;;6766640;88;20220;-79
2023/01/19 23:00:13;;;;;;;1999.90;999.90;;;1.70;99.90;;;;;;6772169;88;21070;-78
2023/01/19 23:10:14;;;;;;;1999.90;999.90;;;1.70;99.90;;;;;;6756103;87;20486;-78
2023/01/19 23:20:15;;;;;;;1999.90;999.90;;;1.70;99.90;;;;;;6765501;88;20207;-78
2023/01/19 23:30:16;;;;;;;1999.90;999.90;;;1.70;99.90;;;;;;6754529;88;20201;-78
2023/01/19 23:40:16;;;;;;;1999.90;999.90;;;1.60;99.90;;;;;;6759932;88;20253;-77
2023/01/19 23:50:17;;;;;;;1999.90;999.90;;;1.60;99.90;;;;;;6759850;88;20157;-78
